Time;durP1;ratioP1;P1;durP2;ratioP2;P2;SDS_P1;SDS_P2;PMS_P1;PMS_P2;Temp;Humidity;BMP_temperature;BMP_pressure;BME280_temperature;BME280_humidity;BME280_pressure;Samples;Min_cycle;Max_cycle;Signal;HPM_P1;HPM_P2
2023/12/24 00:02:14;;;;;;;;;;;;;;;9.00;51.01;99484.97;4938600;28;117699;-64
2023/12/24 00:04:42;;;;;;;;;;;;;;;9.00;50.55;99471.53;4933964;28;108530;-64
2023/12/24 00:07:08;;;;;;;;;;;;;;;8.99;50.23;99471.78;4917136;28;98213;-63
2023/12/24 00:09:37;;;;;;;;;;;;;;;8.99;51.02;99469.09;4924969;28;98127;-63
2023/12/24 00:12:04;;;;;;;;;;;;;;;8.99;50.84;99464.53;4926005;28;126886;-64
2023/12/24 00:14:30;;;;;;;;;;;;;;;8.99;50.98;99467.22;4922597;28;98704;-64
2023/12/24 00:16:56;;;;;;;;;;;;;;;8.97;50.70;99464.03;4941696;28;125137;-64
2023/12/24 00:19:21;;;;;;;;;;;;;;;8.98;51.23;99464.81;4943108;28;127623;-64
2023/12/24 00:21:48;;;;;;;;;;;;;;;8.97;50.56;99458.66;4939682;28;128548;-63
2023/12/24 00:24:14;;;;;;;;;;;;;;;8.98;50.67;99440.63;4936829;28;100744;-64
2023/12/24 00:26:41;;;;;;;;;;;;;;;8.98;50.66;99454.06;4931164;28;98235;-64
2023/12/24 00:29:07;;;;;;;;;;;;;;;8.97;51.03;99439.81;4901675;28;113451;-63
2023/12/24 00:31:34;;;;;;;;;;;;;;;8.96;50.83;99450.84;4931253;28;99276;-63
2023/12/24 00:34:00;;;;;;;;;;;;;;;8.97;50.61;99460.53;4925095;28;98125;-64
2023/12/24 00:36:26;;;;;;;;;;;;;;;8.96;50.25;99462.41;4938144;28;122619;-63
2023/12/24 00:38:52;;;;;;;;;;;;;;;8.97;50.87;99464.03;4924685;28;105308;-64
2023/12/24 00:41:18;;;;;;;;;;;;;;;8.96;50.41;99453.53;4940570;28;100132;-64
2023/12/24 00:43:45;;;;;;;;;;;;;;;8.97;51.27;99458.66;4935355;28;102960;-63
2023/12/24 00:46:15;;;;;;;;;;;;;;;8.97;50.98;99465.91;4941535;28;98701;-63
2023/12/24 00:48:41;;;;;;;;;;;;;;;8.96;51.00;99465.13;4940973;28;98148;-64
2023/12/24 00:51:07;;;;;;;;;;;;;;;8.97;51.13;99460.53;4925366;28;98697;-63
2023/12/24 00:53:33;;;;;;;;;;;;;;;8.96;50.60;99456.22;4952324;28;128009;-64
2023/12/24 00:55:59;;;;;;;;;;;;;;;8.97;50.64;99465.91;4901902;28;98547;-63
2023/12/24 00:58:26;;;;;;;;;;;;;;;8.97;50.49;99441.72;4926935;28;99878;-63
2023/12/24 01:00:52;;;;;;;;;;;;;;;8.96;50.51;99448.97;4941876;28;98674;-63
2023/12/24 01:03:19;;;;;;;;;;;;;;;8.95;51.32;99455.41;4932584;28;98142;-63
2023/12/24 01:05:45;;;;;;;;;;;;;;;8.96;50.62;99448.16;4938030;28;98561;-63
2023/12/24 01:08:11;;;;;;;;;;;;;;;8.95;50.35;99449.25;4935674;28;98078;-64
2023/12/24 01:10:37;;;;;;;;;;;;;;;8.95;50.69;99451.94;4924082;28;98437;-64
2023/12/24 01:13:04;;;;;;;;;;;;;;;8.94;50.51;99445.75;4937902;28;113844;-63
2023/12/24 01:15:30;;;;;;;;;;;;;;;8.95;50.87;99447.34;4926131;28;98232;-64
2023/12/24 01:17:56;;;;;;;;;;;;;;;8.94;51.17;99445.75;4924843;28;98212;-64
2023/12/24 01:20:22;;;;;;;;;;;;;;;8.95;50.84;99455.41;4920207;28;98899;-64
2023/12/24 01:22:48;;;;;;;;;;;;;;;8.94;50.88;99442.28;4920578;28;130304;-63
2023/12/24 01:25:14;;;;;;;;;;;;;;;8.93;50.68;99444.16;4922819;28;101489;-63
2023/12/24 01:27:41;;;;;;;;;;;;;;;8.94;50.65;99439.59;4934756;28;100078;-64
2023/12/24 01:30:07;;;;;;;;;;;;;;;8.95;50.31;99446.56;4939758;28;110132;-64
2023/12/24 01:32:33;;;;;;;;;;;;;;;8.93;50.70;99454.91;4934879;28;98416;-64
2023/12/24 01:34:59;;;;;;;;;;;;;;;8.93;50.82;99459.50;4946108;28;98250;-65
2023/12/24 01:37:25;;;;;;;;;;;;;;;8.94;50.16;99461.09;4923523;28;115457;-65
2023/12/24 01:39:51;;;;;;;;;;;;;;;8.93;51.01;99454.91;4939739;28;98266;-64
2023/12/24 01:42:18;;;;;;;;;;;;;;;8.92;50.69;99445.25;4925333;28;98015;-63
2023/12/24 01:44:44;;;;;;;;;;;;;;;8.94;50.80;99442.28;4933916;28;98410;-64
2023/12/24 01:47:10;;;;;;;;;;;;;;;8.93;50.37;99456.81;4951616;28;98247;-64
2023/12/24 01:49:36;;;;;;;;;;;;;;;8.93;51.11;99448.75;4927392;28;127748;-63
2023/12/24 01:52:03;;;;;;;;;;;;;;;8.92;50.93;99439.88;4952821;28;98001;-63
2023/12/24 01:54:30;;;;;;;;;;;;;;;8.92;50.58;99464.06;4940112;28;105525;-65
2023/12/24 01:56:56;;;;;;;;;;;;;;;8.91;50.71;99449.00;4901681;28;116517;-65
2023/12/24 01:59:22;;;;;;;;;;;;;;;8.92;50.68;99439.03;4925254;28;122959;-64
2023/12/24 02:01:48;;;;;;;;;;;;;;;8.92;51.00;99433.69;4921077;28;98439;-63
2023/12/24 02:04:15;;;;;;;;;;;;;;;8.91;50.96;99437.44;4934370;28;99587;-65
2023/12/24 02:06:41;;;;;;;;;;;;;;;8.90;50.37;99443.91;4924267;28;98444;-65
2023/12/24 02:09:08;;;;;;;;;;;;;;;8.91;50.87;99432.06;4935511;28;110267;-63
2023/12/24 02:11:34;;;;;;;;;;;;;;;8.90;51.09;99425.91;4956510;28;98840;-63
2023/12/24 02:14:02;;;;;;;;;;;;;;;8.89;50.60;99421.63;4934933;28;99564;-63
2023/12/24 02:16:29;;;;;;;;;;;;;;;8.88;50.63;99427.25;4899272;28;98452;-63
2023/12/24 02:18:55;;;;;;;;;;;;;;;8.89;50.85;99443.13;4941581;28;98222;-63
2023/12/24 02:21:21;;;;;;;;;;;;;;;8.89;50.40;99420.81;4935714;28;98264;-65
2023/12/24 02:23:47;;;;;;;;;;;;;;;8.90;51.29;99403.59;4921828;28;98327;-64
2023/12/24 02:26:28;;;;;;;;;;;;;;;8.89;50.53;99397.44;4922735;28;122798;-63
2023/12/24 02:28:59;;;;;;;;;;;;;;;8.89;50.45;99418.13;4947637;28;98526;-64
2023/12/24 02:31:26;;;;;;;;;;;;;;;8.89;50.47;99434.25;4924426;28;99447;-65
2023/12/24 02:33:52;;;;;;;;;;;;;;;8.88;51.26;99414.63;4924374;28;98044;-64
2023/12/24 02:36:18;;;;;;;;;;;;;;;8.89;50.80;99396.63;4939069;28;127722;-62
2023/12/24 02:38:45;;;;;;;;;;;;;;;8.89;50.87;99410.06;4939570;28;100166;-62
2023/12/24 02:41:12;;;;;;;;;;;;;;;8.89;50.69;99439.63;4940949;28;97911;-63
2023/12/24 02:43:38;;;;;;;;;;;;;;;8.89;50.83;99423.50;4926671;28;98098;-64
2023/12/24 02:46:04;;;;;;;;;;;;;;;8.89;50.48;99402.81;4937217;28;97905;-63
2023/12/24 02:48:30;;;;;;;;;;;;;;;8.88;50.94;99424.56;4954706;28;98346;-64
2023/12/24 02:50:56;;;;;;;;;;;;;;;8.87;50.79;99420.28;4923673;28;129633;-63
2023/12/24 02:53:22;;;;;;;;;;;;;;;8.89;50.86;99420.81;4938672;28;103680;-64
2023/12/24 02:55:48;;;;;;;;;;;;;;;8.88;50.41;99406.56;4923677;28;127354;-63
2023/12/24 02:58:15;;;;;;;;;;;;;;;8.89;50.25;99428.88;4938899;28;103955;-63
2023/12/24 03:00:41;;;;;;;;;;;;;;;8.89;50.63;99418.13;4926153;28;98108;-63
2023/12/24 03:03:07;;;;;;;;;;;;;;;8.89;50.65;99408.19;4920019;28;122964;-62
2023/12/24 03:05:33;;;;;;;;;;;;;;;8.90;50.86;99409.78;4934722;28;128424;-66
2023/12/24 03:07:59;;;;;;;;;;;;;;;8.90;50.85;99388.28;4939136;28;98903;-64
2023/12/24 03:10:25;;;;;;;;;;;;;;;8.90;50.88;99385.59;4919016;28;128423;-63
2023/12/24 03:12:51;;;;;;;;;;;;;;;8.91;51.09;99413.25;4924829;28;119069;-65
2023/12/24 03:15:17;;;;;;;;;;;;;;;8.92;50.50;99412.16;4923585;28;101985;-63
2023/12/24 03:17:43;;;;;;;;;;;;;;;8.92;50.83;99410.31;4923279;28;98104;-65
2023/12/24 03:20:09;;;;;;;;;;;;;;;8.93;51.34;99403.03;4922852;28;114226;-63
2023/12/24 03:22:35;;;;;;;;;;;;;;;8.92;50.65;99396.88;4940727;28;98044;-63
2023/12/24 03:25:01;;;;;;;;;;;;;;;8.92;50.29;99378.06;4933988;28;99175;-63
2023/12/24 03:27:27;;;;;;;;;;;;;;;8.93;50.26;99381.53;4923649;28;101294;-63
2023/12/24 03:29:53;;;;;;;;;;;;;;;8.93;51.16;99390.41;4939107;28;98184;-63
2023/12/24 03:32:20;;;;;;;;;;;;;;;8.93;51.02;99378.84;4932029;28;98249;-63
2023/12/24 03:34:46;;;;;;;;;;;;;;;8.95;50.24;99374.00;4925216;28;100273;-65
2023/12/24 03:37:12;;;;;;;;;;;;;;;8.96;51.00;99365.66;4925560;28;125941;-65
2023/12/24 03:39:38;;;;;;;;;;;;;;;8.96;50.99;99368.34;4910232;28;98321;-63
2023/12/24 03:42:05;;;;;;;;;;;;;;;8.97;50.67;99353.81;4923014;28;98304;-65
2023/12/24 03:44:31;;;;;;;;;;;;;;;8.99;50.28;99353.53;4941548;28;98508;-65
2023/12/24 03:46:57;;;;;;;;;;;;;;;9.00;50.65;99365.88;4945392;28;98058;-63
2023/12/24 03:49:23;;;;;;;;;;;;;;;9.01;50.88;99354.84;4923089;28;100803;-63
2023/12/24 03:51:50;;;;;;;;;;;;;;;9.03;50.68;99355.34;4926024;28;97963;-63
2023/12/24 03:54:21;;;;;;;;;;;;;;;9.07;50.80;99352.91;4940435;28;98884;-63
2023/12/24 03:56:47;;;;;;;;;;;;;;;9.11;50.22;99356.63;4931798;28;97936;-65
2023/12/24 03:59:13;;;;;;;;;;;;;;;9.13;51.19;99354.47;4937517;28;98290;-63
2023/12/24 04:01:40;;;;;;;;;;;;;;;9.16;50.98;99345.84;4940250;28;107722;-63
2023/12/24 04:04:06;;;;;;;;;;;;;;;9.21;50.86;99344.97;4925905;28;99404;-63
2023/12/24 04:06:32;;;;;;;;;;;;;;;9.25;50.89;99354.06;4938665;28;99065;-65
2023/12/24 04:08:58;;;;;;;;;;;;;;;9.27;50.55;99339.25;4936487;28;98577;-64
2023/12/24 04:11:27;;;;;;;;;;;;;;;9.32;50.90;99354.53;4927358;28;98077;-63
2023/12/24 04:13:53;;;;;;;;;;;;;;;9.36;51.02;99352.09;4937477;28;100795;-65
2023/12/24 04:16:20;;;;;;;;;;;;;;;9.40;50.75;99359.31;4944015;28;118369;-63
2023/12/24 04:18:46;;;;;;;;;;;;;;;9.43;50.61;99353.34;4955238;28;99279;-63
2023/12/24 04:21:12;;;;;;;;;;;;;;;9.47;50.79;99340.94;4905148;28;98018;-63
2023/12/24 04:23:38;;;;;;;;;;;;;;;9.50;50.86;99359.16;4931246;28;98275;-63
2023/12/24 04:26:04;;;;;;;;;;;;;;;9.53;50.45;99349.72;4940155;28;130183;-64
2023/12/24 04:28:32;;;;;;;;;;;;;;;9.56;50.21;99355.34;4952465;28;97951;-63
2023/12/24 04:30:58;;;;;;;;;;;;;;;9.59;50.90;99341.31;4943371;28;98078;-65
2023/12/24 04:33:24;;;;;;;;;;;;;;;9.64;50.96;99336.97;4926830;28;98596;-65
2023/12/24 04:35:50;;;;;;;;;;;;;;;9.67;50.70;99342.56;4925456;28;128017;-63
2023/12/24 04:38:16;;;;;;;;;;;;;;;9.70;50.70;99346.56;4925602;28;98441;-62
2023/12/24 04:40:42;;;;;;;;;;;;;;;9.72;50.94;99339.81;4936480;28;112613;-65
2023/12/24 04:43:08;;;;;;;;;;;;;;;9.75;50.75;99343.81;4956748;28;130257;-63
2023/12/24 04:45:34;;;;;;;;;;;;;;;9.78;50.56;99345.91;4936776;28;98472;-65
2023/12/24 04:48:03;;;;;;;;;;;;;;;9.81;50.72;99340.75;4905045;28;98897;-63
2023/12/24 04:50:29;;;;;;;;;;;;;;;9.82;50.21;99345.06;4924222;28;98383;-65
2023/12/24 04:52:55;;;;;;;;;;;;;;;9.86;50.83;99342.59;4944530;28;98557;-63
2023/12/24 04:55:21;;;;;;;;;;;;;;;9.89;50.67;99339.31;4937873;28;98255;-65
2023/12/24 04:57:47;;;;;;;;;;;;;;;9.91;50.84;99350.63;4929228;28;119549;-63
2023/12/24 05:00:13;;;;;;;;;;;;;;;9.93;50.73;99353.78;4925816;28;98332;-63
2023/12/24 05:02:39;;;;;;;;;;;;;;;9.96;50.69;99344.34;4954887;28;98059;-63
2023/12/24 05:05:05;;;;;;;;;;;;;;;9.97;50.61;99343.25;4925000;28;127177;-63
2023/12/24 05:07:31;;;;;;;;;;;;;;;9.99;50.76;99355.34;4954110;28;98416;-63
2023/12/24 05:09:57;;;;;;;;;;;;;;;10.01;50.83;99355.84;4928635;28;98173;-63
2023/12/24 05:12:24;;;;;;;;;;;;;;;10.05;50.62;99350.69;4946110;28;98250;-63
2023/12/24 05:14:50;;;;;;;;;;;;;;;10.06;50.45;99342.34;4941096;28;98309;-63
2023/12/24 05:17:18;;;;;;;;;;;;;;;10.08;51.02;99355.50;4926882;28;98140;-63
2023/12/24 05:19:44;;;;;;;;;;;;;;;10.10;51.11;99353.31;4940863;28;101751;-63
2023/12/24 05:22:10;;;;;;;;;;;;;;;10.11;50.88;99357.59;4927023;28;98053;-63
2023/12/24 05:24:36;;;;;;;;;;;;;;;10.14;50.71;99365.13;4927998;28;98359;-63
2023/12/24 05:27:02;;;;;;;;;;;;;;;10.15;50.96;99371.28;4930474;28;97854;-65
2023/12/24 05:29:28;;;;;;;;;;;;;;;10.18;50.55;99362.63;4929845;28;97968;-63
2023/12/24 05:31:56;;;;;;;;;;;;;;;10.18;50.76;99371.53;4948495;28;121854;-63
2023/12/24 05:34:22;;;;;;;;;;;;;;;10.21;50.70;99367.41;4909438;28;98369;-63
2023/12/24 05:36:48;;;;;;;;;;;;;;;10.22;50.98;99371.75;4945571;28;106622;-63
2023/12/24 05:39:15;;;;;;;;;;;;;;;10.22;51.01;99375.22;4936291;28;114582;-65
2023/12/24 05:41:44;;;;;;;;;;;;;;;10.24;50.70;99364.16;4925797;28;100225;-63
2023/12/24 05:44:10;;;;;;;;;;;;;;;10.24;50.51;99362.25;4938726;28;98364;-63
2023/12/24 05:46:36;;;;;;;;;;;;;;;10.27;50.92;99359.03;4929234;28;98214;-66
2023/12/24 05:49:02;;;;;;;;;;;;;;;10.28;51.01;99368.69;4954510;28;107703;-63
2023/12/24 05:51:28;;;;;;;;;;;;;;;10.28;50.87;99371.38;4922968;28;121386;-63
2023/12/24 05:53:54;;;;;;;;;;;;;;;10.30;50.77;99374.59;4937551;28;99163;-65
2023/12/24 05:56:20;;;;;;;;;;;;;;;10.32;50.95;99372.41;4944375;28;99511;-63
2023/12/24 05:58:46;;;;;;;;;;;;;;;10.33;50.94;99375.91;4938146;28;98087;-65
2023/12/24 06:01:13;;;;;;;;;;;;;;;10.35;51.12;99365.63;4926282;28;100059;-63
2023/12/24 06:03:39;;;;;;;;;;;;;;;10.36;50.69;99371.81;4927588;28;97911;-63
2023/12/24 06:06:05;;;;;;;;;;;;;;;10.37;50.86;99374.22;4927859;28;98299;-65
2023/12/24 06:08:31;;;;;;;;;;;;;;;10.38;50.59;99373.16;4924992;28;98809;-65
2023/12/24 06:10:58;;;;;;;;;;;;;;;10.41;50.85;99366.34;4929707;28;104395;-63
2023/12/24 06:13:23;;;;;;;;;;;;;;;10.41;50.76;99375.22;4908599;28;98165;-63
2023/12/24 06:15:49;;;;;;;;;;;;;;;10.42;50.80;99373.38;4924698;28;112945;-63
2023/12/24 06:18:16;;;;;;;;;;;;;;;10.43;50.79;99378.44;4929349;28;98525;-65
2023/12/24 06:20:43;;;;;;;;;;;;;;;10.45;51.03;99376.28;4940805;28;98590;-63
2023/12/24 06:23:10;;;;;;;;;;;;;;;10.46;50.76;99363.59;4928177;28;98356;-63
2023/12/24 06:25:36;;;;;;;;;;;;;;;10.47;50.62;99376.78;4931757;28;99294;-63
2023/12/24 06:28:02;;;;;;;;;;;;;;;10.48;51.01;99372.97;4940130;28;100541;-63
2023/12/24 06:30:30;;;;;;;;;;;;;;;10.49;51.00;99374.59;4942770;28;98475;-63
2023/12/24 06:32:56;;;;;;;;;;;;;;;10.50;50.94;99380.78;4943051;28;99491;-65
2023/12/24 06:35:22;;;;;;;;;;;;;;;10.51;50.97;99380.47;4940964;28;98502;-65
2023/12/24 06:37:49;;;;;;;;;;;;;;;10.52;51.00;99381.28;4941788;28;98220;-63
2023/12/24 06:40:15;;;;;;;;;;;;;;;10.53;50.88;99375.63;4943509;28;102080;-63
2023/12/24 06:42:43;;;;;;;;;;;;;;;10.53;50.70;99372.91;4940922;28;98851;-63
2023/12/24 06:45:09;;;;;;;;;;;;;;;10.55;50.80;99361.84;4923266;28;98899;-63
2023/12/24 06:47:35;;;;;;;;;;;;;;;10.56;50.67;99380.41;4924789;28;108456;-63
2023/12/24 06:50:01;;;;;;;;;;;;;;;10.57;50.76;99367.72;4961584;28;98802;-65
2023/12/24 06:52:27;;;;;;;;;;;;;;;10.58;50.74;99377.44;4936337;28;98093;-64
2023/12/24 06:54:53;;;;;;;;;;;;;;;10.60;51.00;99363.66;4917536;28;98359;-65
2023/12/24 06:57:20;;;;;;;;;;;;;;;10.60;51.08;99359.06;4919769;28;122401;-63
2023/12/24 06:59:46;;;;;;;;;;;;;;;10.61;51.07;99367.94;4938936;28;99262;-63
2023/12/24 07:02:12;;;;;;;;;;;;;;;10.62;51.08;99356.88;4943111;28;123867;-65
2023/12/24 07:04:38;;;;;;;;;;;;;;;10.63;50.83;99363.06;4932803;28;124217;-63
2023/12/24 07:07:04;;;;;;;;;;;;;;;10.65;50.98;99358.16;4920142;28;98188;-63
2023/12/24 07:09:30;;;;;;;;;;;;;;;10.66;51.01;99365.19;4939097;28;98349;-63
2023/12/24 07:11:56;;;;;;;;;;;;;;;10.66;51.08;99359.78;4923646;28;117805;-64
2023/12/24 07:14:22;;;;;;;;;;;;;;;10.68;50.92;99365.66;4922298;28;102224;-65
2023/12/24 07:16:48;;;;;;;;;;;;;;;10.69;50.76;99372.66;4923617;28;124525;-65
2023/12/24 07:19:14;;;;;;;;;;;;;;;10.69;51.05;99376.19;4926944;28;98306;-63
2023/12/24 07:21:40;;;;;;;;;;;;;;;10.72;51.13;99364.00;4945904;28;128586;-65
2023/12/24 07:24:06;;;;;;;;;;;;;;;10.71;50.88;99376.66;4923100;28;129722;-65
2023/12/24 07:26:32;;;;;;;;;;;;;;;10.73;50.70;99371.78;4911215;28;98081;-65
2023/12/24 07:28:59;;;;;;;;;;;;;;;10.76;50.89;99373.09;4930046;28;99607;-63
2023/12/24 07:31:25;;;;;;;;;;;;;;;10.77;51.26;99369.31;4925145;28;97988;-65
2023/12/24 07:33:51;;;;;;;;;;;;;;;10.78;51.16;99360.13;4927747;28;100312;-67
2023/12/24 07:36:17;;;;;;;;;;;;;;;10.80;50.97;99355.22;4943388;28;98010;-64
2023/12/24 07:38:43;;;;;;;;;;;;;;;10.81;51.06;99363.03;4922722;28;100179;-63
2023/12/24 07:41:10;;;;;;;;;;;;;;;10.84;50.85;99366.22;4919572;28;98493;-65
2023/12/24 07:43:36;;;;;;;;;;;;;;;10.85;50.99;99363.25;4941850;28;98936;-65
2023/12/24 07:46:02;;;;;;;;;;;;;;;10.87;50.93;99369.13;4944247;28;122797;-65
2023/12/24 07:48:28;;;;;;;;;;;;;;;10.89;50.98;99374.25;4925401;28;98106;-65
2023/12/24 07:50:54;;;;;;;;;;;;;;;10.88;50.89;99359.94;4939331;28;98338;-65
2023/12/24 07:53:20;;;;;;;;;;;;;;;10.92;50.90;99363.63;4938017;28;98365;-63
2023/12/24 07:55:46;;;;;;;;;;;;;;;10.93;50.82;99365.25;4920683;28;98608;-63
2023/12/24 07:58:12;;;;;;;;;;;;;;;10.96;50.96;99363.84;4939162;28;98238;-65
2023/12/24 08:00:38;;;;;;;;;;;;;;;10.97;51.09;99368.16;4938849;28;99487;-65
2023/12/24 08:03:05;;;;;;;;;;;;;;;11.00;50.98;99370.25;4923379;28;125900;-65
2023/12/24 08:05:31;;;;;;;;;;;;;;;11.01;51.03;99371.88;4922120;28;99367;-65
2023/12/24 08:07:57;;;;;;;;;;;;;;;11.04;50.94;99373.94;4937646;28;98263;-63
2023/12/24 08:10:23;;;;;;;;;;;;;;;11.07;50.68;99365.28;4923897;28;110219;-65
2023/12/24 08:12:49;;;;;;;;;;;;;;;11.11;50.98;99368.19;4937747;28;98882;-65
2023/12/24 08:15:17;;;;;;;;;;;;;;;11.14;50.68;99360.31;4924494;28;98972;-63
2023/12/24 08:17:43;;;;;;;;;;;;;;;11.18;50.76;99360.50;4923420;28;98679;-63
2023/12/24 08:20:10;;;;;;;;;;;;;;;11.20;50.66;99361.81;4924188;28;98312;-65
2023/12/24 08:22:37;;;;;;;;;;;;;;;11.23;50.58;99355.81;4923502;28;116364;-63
2023/12/24 08:25:03;;;;;;;;;;;;;;;11.26;51.03;99357.13;4918082;28;105911;-65
2023/12/24 08:27:29;;;;;;;;;;;;;;;11.29;50.77;99354.63;4940778;28;118542;-66
2023/12/24 08:29:55;;;;;;;;;;;;;;;11.33;50.83;99352.13;4924568;28;124461;-65
2023/12/24 08:32:21;;;;;;;;;;;;;;;11.38;50.74;99345.84;4939440;28;98590;-63
2023/12/24 08:34:48;;;;;;;;;;;;;;;11.41;50.52;99354.13;4942086;28;97939;-65
2023/12/24 08:37:14;;;;;;;;;;;;;;;11.43;50.65;99357.31;4939057;28;98530;-65
2023/12/24 08:39:40;;;;;;;;;;;;;;;11.48;50.59;99357.25;4926310;28;122252;-64
2023/12/24 08:42:06;;;;;;;;;;;;;;;11.53;50.62;99350.94;4922225;28;98894;-63
2023/12/24 08:44:35;;;;;;;;;;;;;;;11.57;50.70;99353.84;4941451;28;98420;-64
2023/12/24 08:47:01;;;;;;;;;;;;;;;11.60;50.78;99356.75;4941193;28;98013;-65
2023/12/24 08:49:27;;;;;;;;;;;;;;;11.65;50.82;99353.13;4940258;28;100058;-63
2023/12/24 08:51:53;;;;;;;;;;;;;;;11.71;50.58;99349.22;4908447;28;98438;-66
2023/12/24 08:54:19;;;;;;;;;;;;;;;11.78;50.69;99345.00;4937960;28;98323;-65
2023/12/24 08:56:45;;;;;;;;;;;;;;;11.80;50.73;99348.22;4927543;28;99816;-65
2023/12/24 08:59:12;;;;;;;;;;;;;;;11.82;50.64;99353.31;4920213;28;99678;-64
2023/12/24 09:01:41;;;;;;;;;;;;;;;11.84;50.78;99345.75;4935474;28;98127;-66
2023/12/24 09:04:07;;;;;;;;;;;;;;;11.85;50.63;99360.06;4905831;28;103588;-66
2023/12/24 09:06:34;;;;;;;;;;;;;;;11.85;50.59;99352.75;4907542;28;98263;-64
2023/12/24 09:09:00;;;;;;;;;;;;;;;11.87;51.06;99355.13;4924826;28;111193;-63
2023/12/24 09:11:26;;;;;;;;;;;;;;;11.87;50.76;99349.72;4922599;28;98929;-64
2023/12/24 09:13:52;;;;;;;;;;;;;;;11.87;50.65;99347.84;4936018;28;98195;-64
2023/12/24 09:16:18;;;;;;;;;;;;;;;11.89;50.64;99352.94;4932419;28;98792;-65
2023/12/24 09:18:44;;;;;;;;;;;;;;;11.90;50.73;99349.94;4927714;28;116711;-66
2023/12/24 09:21:10;;;;;;;;;;;;;;;11.94;50.71;99356.31;4920679;28;99295;-66
2023/12/24 09:23:36;;;;;;;;;;;;;;;11.95;50.76;99357.94;4922897;28;110061;-64
2023/12/24 09:26:02;;;;;;;;;;;;;;;11.96;50.61;99354.13;4921671;28;107287;-66
2023/12/24 09:28:28;;;;;;;;;;;;;;;11.97;50.65;99363.81;4942104;28;99412;-66
2023/12/24 09:30:55;;;;;;;;;;;;;;;11.99;50.74;99358.94;4924167;28;98558;-66
2023/12/24 09:33:20;;;;;;;;;;;;;;;11.99;50.71;99367.03;4938007;28;99026;-66
2023/12/24 09:35:46;;;;;;;;;;;;;;;12.02;50.72;99363.72;4932761;28;103357;-66
2023/12/24 09:38:13;;;;;;;;;;;;;;;12.03;50.87;99362.63;4920688;28;102729;-63
2023/12/24 09:40:39;;;;;;;;;;;;;;;12.09;50.58;99365.22;4921024;28;98062;-64
2023/12/24 09:43:06;;;;;;;;;;;;;;;12.10;50.86;99359.50;4939390;28;98582;-63
2023/12/24 09:45:36;;;;;;;;;;;;;;;12.11;50.86;99349.50;4935083;28;98837;-65
2023/12/24 09:48:03;;;;;;;;;;;;;;;12.10;50.82;99351.38;4918512;28;98189;-64
2023/12/24 09:50:29;;;;;;;;;;;;;;;12.14;50.75;99355.06;4940298;28;97885;-63
2023/12/24 09:52:55;;;;;;;;;;;;;;;12.15;50.76;99345.88;4905387;28;99600;-66
2023/12/24 09:55:21;;;;;;;;;;;;;;;12.20;50.88;99337.66;4915297;28;106524;-65
2023/12/24 09:57:47;;;;;;;;;;;;;;;12.22;50.72;99342.75;4938261;28;98355;-63
2023/12/24 10:00:17;;;;;;;;;;;;;;;12.24;50.80;99344.06;4942744;28;99556;-65
2023/12/24 10:02:44;;;;;;;;;;;;;;;12.28;50.86;99344.25;4939161;28;116993;-66
2023/12/24 10:05:11;;;;;;;;;;;;;;;12.31;50.76;99345.53;4921439;28;109530;-65
2023/12/24 10:07:38;;;;;;;;;;;;;;;12.32;50.89;99345.22;4936026;28;98448;-65
2023/12/24 10:10:05;;;;;;;;;;;;;;;12.40;50.68;99335.59;4923119;28;98317;-63
2023/12/24 10:12:31;;;;;;;;;;;;;;;12.45;50.78;99338.97;4924068;28;99555;-63
2023/12/24 10:14:58;;;;;;;;;;;;;;;12.48;50.42;99335.66;4931304;28;98059;-66
2023/12/24 10:17:30;;;;;;;;;;;;;;;12.51;50.61;99345.88;4921480;28;98680;-66
2023/12/24 10:20:02;;;;;;;;;;;;;;;12.56;50.52;99333.31;4933659;28;99233;-64
2023/12/24 10:22:28;;;;;;;;;;;;;;;12.58;50.50;99331.13;4921883;28;98536;-63
2023/12/24 10:25:05;;;;;;;;;;;;;;;12.58;50.63;99337.34;4903864;28;116804;-64
2023/12/24 10:27:31;;;;;;;;;;;;;;;12.60;50.65;99326.19;4931256;28;98352;-64
2023/12/24 10:30:13;;;;;;;;;;;;;;;12.62;50.70;99326.69;4917606;28;98707;-66
2023/12/24 10:32:43;;;;;;;;;;;;;;;12.64;50.84;99319.88;4914804;28;98196;-63
2023/12/24 10:35:09;;;;;;;;;;;;;;;12.67;50.52;99313.84;4914358;28;100207;-64
2023/12/24 10:37:35;;;;;;;;;;;;;;;12.70;50.65;99299.72;4916213;28;97996;-66
2023/12/24 10:40:08;;;;;;;;;;;;;;;12.76;50.42;99295.75;4931408;28;98117;-64
2023/12/24 10:42:38;;;;;;;;;;;;;;;12.74;50.45;99299.91;4914979;28;98092;-64
2023/12/24 10:45:08;;;;;;;;;;;;;;;12.75;50.76;99296.88;4918656;28;98276;-64
2023/12/24 10:47:38;;;;;;;;;;;;;;;12.76;50.37;99300.38;4920686;28;98865;-67
2023/12/24 10:50:05;;;;;;;;;;;;;;;12.80;50.58;99289.75;4916743;28;98119;-64
2023/12/24 10:52:31;;;;;;;;;;;;;;;12.78;50.43;99290.84;4938841;28;99085;-66
2023/12/24 10:54:58;;;;;;;;;;;;;;;12.76;50.84;99282.25;4914812;28;100594;-66
2023/12/24 10:57:32;;;;;;;;;;;;;;;12.75;50.79;99277.16;4917477;28;97993;-63
2023/12/24 11:00:14;;;;;;;;;;;;;;;12.72;50.58;99265.03;4948959;28;97973;-63
2023/12/24 11:02:44;;;;;;;;;;;;;;;12.68;50.73;99277.59;4936617;28;97896;-67
2023/12/24 11:05:10;;;;;;;;;;;;;;;12.66;50.77;99277.13;4921678;28;99905;-64
2023/12/24 11:07:46;;;;;;;;;;;;;;;12.65;50.64;99277.41;4933957;28;98383;-64
2023/12/24 11:10:39;;;;;;;;;;;;;;;12.62;50.88;99272.63;4920471;28;99593;-66
2023/12/24 11:13:09;;;;;;;;;;;;;;;12.60;50.78;99289.16;4919339;28;98162;-64
2023/12/24 11:15:45;;;;;;;;;;;;;;;12.58;50.81;99275.16;4928265;28;97984;-64
2023/12/24 11:18:12;;;;;;;;;;;;;;;12.58;50.76;99277.88;4936697;28;118227;-64
2023/12/24 11:20:40;;;;;;;;;;;;;;;12.59;50.98;99273.25;4921205;28;98509;-66
2023/12/24 11:23:09;;;;;;;;;;;;;;;12.59;50.99;99270.53;4932055;28;98120;-66
2023/12/24 11:25:39;;;;;;;;;;;;;;;12.58;50.96;99271.66;4932224;28;99530;-66
2023/12/24 11:28:07;;;;;;;;;;;;;;;12.58;51.03;99267.06;4951142;28;99516;-66
2023/12/24 11:30:57;;;;;;;;;;;;;;;12.60;50.87;99272.13;4931326;28;98443;-67
2023/12/24 11:33:42;;;;;;;;;;;;;;;12.62;50.84;99264.53;4946784;28;98264;-64
2023/12/24 11:36:11;;;;;;;;;;;;;;;12.66;50.86;99249.28;4953384;28;99376;-66
2023/12/24 11:38:39;;;;;;;;;;;;;;;12.70;50.72;99259.16;4918996;28;100059;-66
2023/12/24 11:41:11;;;;;;;;;;;;;;;12.74;50.94;99257.44;4914838;28;98155;-66
2023/12/24 11:43:40;;;;;;;;;;;;;;;12.77;50.89;99264.09;4949129;28;98030;-64
2023/12/24 11:46:06;;;;;;;;;;;;;;;12.81;50.60;99259.69;4933211;28;99163;-64
2023/12/24 11:48:33;;;;;;;;;;;;;;;12.83;50.75;99256.69;4933370;28;98241;-66
2023/12/24 11:51:06;;;;;;;;;;;;;;;12.83;50.76;99245.84;4929678;28;98723;-64
2023/12/24 11:53:33;;;;;;;;;;;;;;;12.83;50.99;99240.44;4921255;28;98041;-64
2023/12/24 11:56:13;;;;;;;;;;;;;;;12.84;50.94;99252.84;4918639;28;98402;-66
2023/12/24 11:58:48;;;;;;;;;;;;;;;12.87;50.73;99249.53;4930341;28;98307;-64
2023/12/24 12:01:24;;;;;;;;;;;;;;;12.89;50.71;99233.78;4946669;28;98119;-64
2023/12/24 12:03:56;;;;;;;;;;;;;;;12.91;50.93;99231.56;4921375;28;98951;-64
2023/12/24 12:06:22;;;;;;;;;;;;;;;12.96;50.73;99217.91;4935634;28;98211;-66
2023/12/24 12:08:48;;;;;;;;;;;;;;;12.98;50.64;99224.59;4922026;28;98489;-64
2023/12/24 12:11:14;;;;;;;;;;;;;;;13.01;51.13;99228.59;4920018;28;98324;-66
2023/12/24 12:13:43;;;;;;;;;;;;;;;13.02;50.68;99230.97;4917518;28;123946;-64
2023/12/24 12:16:10;;;;;;;;;;;;;;;13.05;50.95;99217.94;4935803;28;100170;-64
2023/12/24 12:18:36;;;;;;;;;;;;;;;13.08;50.90;99220.81;4922830;28;98327;-66
2023/12/24 12:21:02;;;;;;;;;;;;;;;13.10;50.91;99224.00;4934238;28;122241;-64
2023/12/24 12:23:28;;;;;;;;;;;;;;;13.11;51.08;99216.69;4914871;28;98548;-66
2023/12/24 12:25:54;;;;;;;;;;;;;;;13.10;50.82;99215.88;4896245;28;112910;-64
2023/12/24 12:28:20;;;;;;;;;;;;;;;13.15;50.79;99206.81;4918228;28;115387;-66
2023/12/24 12:30:46;;;;;;;;;;;;;;;13.20;50.94;99209.38;4922453;28;100177;-64
2023/12/24 12:33:12;;;;;;;;;;;;;;;13.22;50.46;99226.13;4921438;28;98382;-66
2023/12/24 12:35:39;;;;;;;;;;;;;;;13.24;50.72;99222.03;4936124;28;106153;-64
2023/12/24 12:38:05;;;;;;;;;;;;;;;13.25;50.97;99230.94;4923913;28;98065;-66
2023/12/24 12:40:31;;;;;;;;;;;;;;;13.24;50.58;99229.31;4937968;28;98184;-66
2023/12/24 12:42:57;;;;;;;;;;;;;;;13.23;50.79;99227.72;4939231;28;98359;-64
2023/12/24 12:45:24;;;;;;;;;;;;;;;13.21;51.00;99229.94;4936542;28;100209;-66
2023/12/24 12:47:50;;;;;;;;;;;;;;;13.21;50.69;99225.31;4919685;28;98366;-66